Time;durP1;ratioP1;P1;durP2;ratioP2;P2;SDS_P1;SDS_P2;PMS_P1;PMS_P2;Temp;Humidity;BMP_temperature;BMP_pressure;BME280_temperature;BME280_humidity;BME280_pressure;Samples;Min_cycle;Max_cycle;Signal;HPM_P1;HPM_P2
2022/10/29 00:00:57;;;;;;;;;;;22.20;37.80;;;;;;5113662;27;19922;-70
2022/10/29 00:03:23;;;;;;;;;;;22.20;38.10;;;;;;5105451;27;19908;-70
2022/10/29 00:05:57;;;;;;;;;;;22.30;37.40;;;;;;5100730;27;19983;-69
2022/10/29 00:08:23;;;;;;;;;;;22.30;37.70;;;;;;5135959;27;19908;-70
2022/10/29 00:10:50;;;;;;;;;;;22.30;37.30;;;;;;5132584;27;19911;-70
2022/10/29 00:13:17;;;;;;;;;;;22.30;36.60;;;;;;5122594;27;20353;-69
2022/10/29 00:15:43;;;;;;;;;;;22.30;37.00;;;;;;5127310;27;19926;-69
2022/10/29 00:18:10;;;;;;;;;;;22.30;36.80;;;;;;5135498;27;19908;-69
2022/10/29 00:20:36;;;;;;;;;;;22.40;37.20;;;;;;5130514;27;19916;-70
2022/10/29 00:23:03;;;;;;;;;;;22.40;36.80;;;;;;5128542;27;19920;-69
2022/10/29 00:25:29;;;;;;;;;;;22.40;35.70;;;;;;5120142;27;19907;-70
2022/10/29 00:27:56;;;;;;;;;;;22.50;36.40;;;;;;5135552;27;19915;-70
2022/10/29 00:30:23;;;;;;;;;;;22.40;36.70;;;;;;5129702;27;20357;-69
2022/10/29 00:32:49;;;;;;;;;;;22.50;37.00;;;;;;5132695;27;19981;-69
2022/10/29 00:35:16;;;;;;;;;;;22.50;37.10;;;;;;5112771;27;20010;-69
2022/10/29 00:37:42;;;;;;;;;;;22.50;37.10;;;;;;5134522;27;19962;-70
2022/10/29 00:40:09;;;;;;;;;;;22.50;36.90;;;;;;5127236;27;19915;-69
2022/10/29 00:42:36;;;;;;;;;;;22.50;37.20;;;;;;5135591;27;19955;-69
2022/10/29 01:14:03;;;;;;;;;;;22.70;36.80;;;;;;5108788;27;20020;-69
2022/10/29 01:16:29;;;;;;;;;;;22.80;38.20;;;;;;5100572;28;19924;-70
2022/10/29 01:19:19;;;;;;;;;;;22.80;35.30;;;;;;5114171;28;19911;-70
2022/10/29 01:21:47;;;;;;;;;;;22.80;36.00;;;;;;5099718;28;19985;-70
2022/10/29 01:24:17;;;;;;;;;;;22.80;35.40;;;;;;5093548;28;19919;-69
2022/10/29 01:27:02;;;;;;;;;;;22.80;34.80;;;;;;5113996;28;20343;-69
2022/10/29 01:29:46;;;;;;;;;;;22.80;34.80;;;;;;5095235;28;20361;-70
2022/10/29 01:32:13;;;;;;;;;;;22.80;34.90;;;;;;5108281;28;19916;-70
2022/10/29 01:34:50;;;;;;;;;;;22.80;35.20;;;;;;5090744;28;19912;-69
2022/10/29 01:37:19;;;;;;;;;;;22.80;35.20;;;;;;5095423;28;20006;-69
2022/10/29 01:39:54;;;;;;;;;;;22.90;34.40;;;;;;5111259;28;19914;-69
2022/10/29 01:42:23;;;;;;;;;;;22.90;34.40;;;;;;5066058;28;19919;-69
2022/10/29 01:44:55;;;;;;;;;;;23.00;34.30;;;;;;5069937;28;19912;-69
2022/10/29 01:47:21;;;;;;;;;;;23.00;34.70;;;;;;5086658;28;20003;-69
2022/10/29 01:49:52;;;;;;;;;;;23.00;34.90;;;;;;5059993;28;20281;-68
2022/10/29 01:52:20;;;;;;;;;;;23.00;36.20;;;;;;5073746;28;19916;-68
2022/10/29 01:54:46;;;;;;;;;;;23.00;34.30;;;;;;5089682;28;19959;-68
2022/10/29 01:57:25;;;;;;;;;;;23.00;34.50;;;;;;5089104;28;19916;-68
2022/10/29 01:59:52;;;;;;;;;;;23.00;34.20;;;;;;5082091;28;19923;-67
2022/10/29 02:02:30;;;;;;;;;;;23.00;34.50;;;;;;5091098;28;19920;-68
2022/10/29 02:04:59;;;;;;;;;;;23.00;34.30;;;;;;5074571;28;20283;-67
2022/10/29 02:07:32;;;;;;;;;;;23.00;34.20;;;;;;5095968;28;19908;-67
2022/10/29 02:10:11;;;;;;;;;;;23.10;34.50;;;;;;5095263;28;19908;-67
2022/10/29 02:12:39;;;;;;;;;;;23.10;34.30;;;;;;5072145;28;19913;-67
2022/10/29 02:15:06;;;;;;;;;;;23.10;34.00;;;;;;5076420;28;19965;-67
2022/10/29 02:17:33;;;;;;;;;;;23.10;34.60;;;;;;5086872;28;19995;-68
2022/10/29 02:20:04;;;;;;;;;;;23.10;35.10;;;;;;5088908;28;19935;-67
2022/10/29 02:22:30;;;;;;;;;;;23.10;34.00;;;;;;5092367;28;20325;-68
2022/10/29 02:24:57;;;;;;;;;;;23.10;34.90;;;;;;5095527;28;19923;-67
2022/10/29 02:27:23;;;;;;;;;;;23.20;34.70;;;;;;5103193;28;20368;-67
2022/10/29 02:29:50;;;;;;;;;;;23.30;34.20;;;;;;5097983;28;19908;-67
2022/10/29 02:32:16;;;;;;;;;;;23.30;33.50;;;;;;5098057;28;20011;-67
2022/10/29 02:34:43;;;;;;;;;;;23.30;33.70;;;;;;5091187;28;19915;-69
2022/10/29 02:37:10;;;;;;;;;;;23.30;33.90;;;;;;5085000;28;20353;-67
2022/10/29 02:39:36;;;;;;;;;;;23.30;34.60;;;;;;5086301;28;19991;-67
2022/10/29 02:42:03;;;;;;;;;;;23.30;34.80;;;;;;5084208;28;19923;-68
2022/10/29 02:44:29;;;;;;;;;;;23.30;34.30;;;;;;5089105;28;19912;-68
2022/10/29 02:46:56;;;;;;;;;;;23.30;34.20;;;;;;5087573;28;19962;-67
2022/10/29 02:49:23;;;;;;;;;;;23.30;34.10;;;;;;5089472;28;19920;-68
2022/10/29 02:51:49;;;;;;;;;;;23.30;34.20;;;;;;5088791;28;19940;-68
2022/10/29 02:54:16;;;;;;;;;;;23.30;34.40;;;;;;5085606;28;19916;-69
2022/10/29 02:56:42;;;;;;;;;;;23.30;34.90;;;;;;5080627;28;19908;-68
2022/10/29 02:59:09;;;;;;;;;;;23.40;34.50;;;;;;5108825;28;19907;-68
2022/10/29 03:01:35;;;;;;;;;;;23.40;33.70;;;;;;5100699;28;19978;-68
2022/10/29 03:04:02;;;;;;;;;;;23.40;34.20;;;;;;5114088;28;19968;-68
2022/10/29 03:06:29;;;;;;;;;;;23.40;34.30;;;;;;5098110;27;19918;-68
2022/10/29 03:08:55;;;;;;;;;;;23.40;34.10;;;;;;5108601;28;19919;-67
2022/10/29 03:11:22;;;;;;;;;;;23.40;34.00;;;;;;5115145;27;19930;-68
2022/10/29 03:13:48;;;;;;;;;;;23.40;34.50;;;;;;5110866;28;20007;-68
2022/10/29 03:16:15;;;;;;;;;;;23.40;34.40;;;;;;5107638;27;19931;-68
2022/10/29 03:18:41;;;;;;;;;;;23.50;33.70;;;;;;5101375;28;20455;-68
2022/10/29 03:21:08;;;;;;;;;;;23.60;33.60;;;;;;5109962;27;19915;-68
2022/10/29 03:23:35;;;;;;;;;;;23.60;34.30;;;;;;5107524;27;19926;-69
2022/10/29 03:26:01;;;;;;;;;;;23.60;33.40;;;;;;5098903;27;19920;-68
2022/10/29 03:28:29;;;;;;;;;;;23.50;34.00;;;;;;5099972;28;19924;-67
2022/10/29 03:30:56;;;;;;;;;;;23.50;33.70;;;;;;5103850;28;19916;-68
2022/10/29 03:33:25;;;;;;;;;;;23.50;34.20;;;;;;5106200;27;19912;-68
2022/10/29 03:35:58;;;;;;;;;;;23.50;34.40;;;;;;5115371;28;19924;-68
2022/10/29 03:38:24;;;;;;;;;;;23.60;34.10;;;;;;5089212;28;19911;-67
2022/10/29 03:40:51;;;;;;;;;;;23.50;33.50;;;;;;5116118;27;19908;-67
2022/10/29 03:43:18;;;;;;;;;;;23.60;33.80;;;;;;5105196;27;19915;-68
2022/10/29 03:45:49;;;;;;;;;;;23.70;34.00;;;;;;5116491;27;19935;-68
2022/10/29 03:48:15;;;;;;;;;;;23.70;34.40;;;;;;5089592;27;19912;-68
2022/10/29 03:50:42;;;;;;;;;;;23.70;33.60;;;;;;5107518;28;19912;-68
2022/10/29 03:53:08;;;;;;;;;;;23.70;33.90;;;;;;5099658;28;20007;-68
2022/10/29 03:55:35;;;;;;;;;;;23.80;33.70;;;;;;5110709;28;20004;-69
2022/10/29 03:58:02;;;;;;;;;;;23.80;32.50;;;;;;5103718;28;19911;-68
2022/10/29 04:00:28;;;;;;;;;;;23.80;32.30;;;;;;5110491;27;19927;-68
2022/10/29 04:02:55;;;;;;;;;;;23.80;32.40;;;;;;5112869;27;19916;-68
2022/10/29 04:05:21;;;;;;;;;;;23.80;32.60;;;;;;5116239;27;20486;-68
2022/10/29 04:07:48;;;;;;;;;;;23.80;32.50;;;;;;5107570;27;19955;-68
2022/10/29 04:10:14;;;;;;;;;;;23.80;31.70;;;;;;5106326;27;19912;-68
2022/10/29 04:12:44;;;;;;;;;;;23.80;32.00;;;;;;5109119;28;20002;-67
2022/10/29 04:15:10;;;;;;;;;;;23.90;32.30;;;;;;5112353;28;19923;-67
2022/10/29 04:17:37;;;;;;;;;;;23.80;31.70;;;;;;5092869;28;20294;-68
2022/10/29 04:20:04;;;;;;;;;;;23.80;31.50;;;;;;5084845;28;19923;-68
2022/10/29 04:22:30;;;;;;;;;;;23.90;31.40;;;;;;5098076;28;19945;-68
2022/10/29 04:24:57;;;;;;;;;;;23.90;31.40;;;;;;5112052;28;19912;-68
2022/10/29 04:27:23;;;;;;;;;;;23.90;31.60;;;;;;5104453;28;19916;-67
2022/10/29 04:29:50;;;;;;;;;;;24.00;30.90;;;;;;5112446;28;19947;-67
2022/10/29 04:32:17;;;;;;;;;;;24.00;30.60;;;;;;5090291;28;20267;-68
2022/10/29 04:34:43;;;;;;;;;;;23.90;31.10;;;;;;5091944;28;19920;-68
2022/10/29 04:37:10;;;;;;;;;;;24.00;29.90;;;;;;5091190;28;19916;-68
2022/10/29 04:39:36;;;;;;;;;;;24.00;29.70;;;;;;5090572;28;20337;-68
2022/10/29 04:42:03;;;;;;;;;;;24.00;29.00;;;;;;5083932;28;20189;-68
2022/10/29 04:44:29;;;;;;;;;;;24.00;29.20;;;;;;5095914;28;19923;-66
2022/10/29 04:46:56;;;;;;;;;;;24.00;29.40;;;;;;5091360;28;19912;-66
2022/10/29 04:49:23;;;;;;;;;;;24.00;29.70;;;;;;5089489;28;19939;-65
2022/10/29 04:51:49;;;;;;;;;;;24.00;28.70;;;;;;5091458;28;19919;-65
2022/10/29 05:51:21;;;;;;;;;;;23.90;30.40;;;;;;5087786;28;20012;-69
2022/10/29 05:53:48;;;;;;;;;;;23.90;30.40;;;;;;5085405;28;19959;-68
2022/10/29 05:56:15;;;;;;;;;;;23.90;30.30;;;;;;5099869;28;20373;-68
2022/10/29 05:58:41;;;;;;;;;;;23.90;30.50;;;;;;5099284;28;19919;-68
2022/10/29 06:01:08;;;;;;;;;;;23.90;29.90;;;;;;5097645;28;19984;-67
2022/10/29 06:03:35;;;;;;;;;;;23.90;29.60;;;;;;5111115;28;19911;-67
2022/10/29 06:06:01;;;;;;;;;;;23.80;30.00;;;;;;5103460;28;20056;-68
2022/10/29 06:08:28;;;;;;;;;;;23.80;30.30;;;;;;5110674;28;20002;-68
2022/10/29 06:10:55;;;;;;;;;;;23.80;30.50;;;;;;5101461;28;19951;-67
2022/10/29 06:13:21;;;;;;;;;;;23.80;30.10;;;;;;5110291;28;20010;-66
2022/10/29 06:15:50;;;;;;;;;;;23.80;30.00;;;;;;5092352;28;19919;-66
2022/10/29 06:18:16;;;;;;;;;;;23.80;30.10;;;;;;5100289;28;19916;-66
2022/10/29 06:20:43;;;;;;;;;;;23.70;30.60;;;;;;5088777;28;19924;-66
2022/10/29 06:23:10;;;;;;;;;;;23.80;31.00;;;;;;5110368;28;19908;-67
2022/10/29 06:25:36;;;;;;;;;;;23.70;31.00;;;;;;5092144;28;19994;-66
2022/10/29 06:28:04;;;;;;;;;;;23.70;31.00;;;;;;5108066;28;19912;-67
2022/10/29 06:30:31;;;;;;;;;;;23.70;31.10;;;;;;5093531;28;19912;-67
2022/10/29 06:32:57;;;;;;;;;;;23.70;30.80;;;;;;5105772;28;20089;-67
2022/10/29 06:35:24;;;;;;;;;;;23.70;31.10;;;;;;5109852;28;19941;-67
2022/10/29 06:37:50;;;;;;;;;;;23.70;31.10;;;;;;5104221;28;19915;-66
2022/10/29 06:40:17;;;;;;;;;;;23.70;32.10;;;;;;5099402;28;19917;-67
2022/10/29 06:42:44;;;;;;;;;;;23.60;31.60;;;;;;5089821;28;19923;-66
2022/10/29 06:45:10;;;;;;;;;;;23.60;31.40;;;;;;5090042;28;19964;-67
2022/10/29 06:47:43;;;;;;;;;;;23.60;31.70;;;;;;5089548;28;19999;-66
2022/10/29 06:50:10;;;;;;;;;;;23.50;31.70;;;;;;5094404;28;20467;-67
2022/10/29 06:52:37;;;;;;;;;;;23.50;31.90;;;;;;5102842;28;20001;-66
2022/10/29 06:55:04;;;;;;;;;;;23.50;32.10;;;;;;5109103;28;19920;-66
2022/10/29 06:57:30;;;;;;;;;;;23.40;32.50;;;;;;5101812;28;20010;-66
2022/10/29 06:59:57;;;;;;;;;;;23.50;32.60;;;;;;5121051;28;19922;-66
2022/10/29 07:02:23;;;;;;;;;;;23.50;33.20;;;;;;5127537;28;20318;-66
2022/10/29 07:04:50;;;;;;;;;;;23.50;33.50;;;;;;5129970;28;19908;-66
2022/10/29 07:07:17;;;;;;;;;;;23.40;33.70;;;;;;5129914;28;19907;-66
2022/10/29 07:09:43;;;;;;;;;;;23.40;34.40;;;;;;5130147;28;19912;-65
2022/10/29 07:12:10;;;;;;;;;;;23.30;34.40;;;;;;5121688;28;19923;-65
2022/10/29 07:14:37;;;;;;;;;;;23.30;34.50;;;;;;5130237;28;19922;-65
2022/10/29 07:17:03;;;;;;;;;;;23.30;34.50;;;;;;5130139;28;19922;-66
2022/10/29 07:19:30;;;;;;;;;;;23.30;34.10;;;;;;5129757;28;19911;-66
2022/10/29 07:21:56;;;;;;;;;;;23.30;34.50;;;;;;5118267;28;20281;-66
2022/10/29 07:24:23;;;;;;;;;;;23.30;34.00;;;;;;5129902;28;20002;-67
2022/10/29 07:26:49;;;;;;;;;;;23.30;34.70;;;;;;5117497;28;19911;-66
2022/10/29 07:29:16;;;;;;;;;;;23.30;34.50;;;;;;5129446;28;20519;-66
2022/10/29 07:31:43;;;;;;;;;;;23.20;34.50;;;;;;5116467;28;19920;-64
2022/10/29 07:34:09;;;;;;;;;;;23.20;34.60;;;;;;5129652;28;20286;-66
2022/10/29 07:36:36;;;;;;;;;;;23.10;35.10;;;;;;5129312;28;20010;-65
2022/10/29 07:39:03;;;;;;;;;;;23.10;34.30;;;;;;5127067;27;19912;-66
2022/10/29 07:41:31;;;;;;;;;;;23.00;34.50;;;;;;5123807;28;19912;-66
2022/10/29 07:43:57;;;;;;;;;;;23.00;34.30;;;;;;5122055;28;20242;-67
2022/10/29 07:46:24;;;;;;;;;;;22.90;34.70;;;;;;5132584;28;19958;-68
2022/10/29 07:48:50;;;;;;;;;;;23.00;34.70;;;;;;5135837;27;19911;-68
2022/10/29 07:51:17;;;;;;;;;;;22.90;34.80;;;;;;5119675;27;20333;-68
2022/10/29 07:53:44;;;;;;;;;;;22.90;34.10;;;;;;5136378;27;19916;-68
2022/10/29 07:56:10;;;;;;;;;;;22.80;34.60;;;;;;5136453;27;20006;-68
2022/10/29 07:58:37;;;;;;;;;;;22.80;34.30;;;;;;5114735;27;19916;-68
2022/10/29 08:01:03;;;;;;;;;;;22.80;33.90;;;;;;5127724;27;19912;-68
2022/10/29 08:03:30;;;;;;;;;;;22.80;33.70;;;;;;5129721;27;19911;-67
2022/10/29 08:05:57;;;;;;;;;;;22.80;33.60;;;;;;5136115;27;20001;-68
2022/10/29 08:08:24;;;;;;;;;;;22.70;33.50;;;;;;5114727;27;19908;-68
2022/10/29 08:10:50;;;;;;;;;;;22.70;33.60;;;;;;5129193;27;19918;-69
2022/10/29 08:13:17;;;;;;;;;;;22.70;33.80;;;;;;5116123;27;19919;-67
2022/10/29 08:15:45;;;;;;;;;;;22.60;36.20;;;;;;5124507;27;19915;-68
2022/10/29 08:18:15;;;;;;;;;;;22.50;36.00;;;;;;5112959;27;20424;-67
2022/10/29 08:20:42;;;;;;;;;;;22.50;34.80;;;;;;5123722;27;19922;-68
2022/10/29 08:23:08;;;;;;;;;;;22.50;34.30;;;;;;5108595;27;19912;-68
2022/10/29 08:25:40;;;;;;;;;;;22.40;33.80;;;;;;5131717;27;19907;-68
2022/10/29 08:28:07;;;;;;;;;;;22.40;33.70;;;;;;5102820;27;19907;-68
2022/10/29 08:30:33;;;;;;;;;;;22.40;33.90;;;;;;5127616;27;19950;-69
2022/10/29 08:33:00;;;;;;;;;;;22.30;33.90;;;;;;5129706;27;19915;-68
2022/10/29 08:35:27;;;;;;;;;;;22.30;34.40;;;;;;5128591;27;19973;-68
2022/10/29 08:37:53;;;;;;;;;;;22.30;34.10;;;;;;5132204;27;19908;-68
2022/10/29 08:40:35;;;;;;;;;;;22.30;34.70;;;;;;5131271;27;20337;-68
2022/10/29 08:43:17;;;;;;;;;;;22.20;34.30;;;;;;5130019;27;19923;-67
2022/10/29 08:45:48;;;;;;;;;;;22.20;35.20;;;;;;5114876;27;19926;-68
2022/10/29 08:48:40;;;;;;;;;;;22.20;34.90;;;;;;5133043;27;19912;-69
2022/10/29 14:36:55;;;;;;;;;;;18.70;46.50;;;;;;5126774;27;19934;-68
2022/10/29 14:39:22;;;;;;;;;;;18.70;46.70;;;;;;5092164;27;20378;-68
2022/10/29 14:41:49;;;;;;;;;;;18.70;46.80;;;;;;5119504;27;19958;-69
2022/10/29 14:44:17;;;;;;;;;;;18.60;46.90;;;;;;5127375;27;19911;-68
2022/10/29 14:46:43;;;;;;;;;;;18.50;46.70;;;;;;5133033;27;19912;-69
2022/10/29 14:49:15;;;;;;;;;;;18.50;46.30;;;;;;5110853;27;19911;-69
2022/10/29 14:51:52;;;;;;;;;;;18.50;46.70;;;;;;5115012;27;19908;-68
2022/10/29 14:54:20;;;;;;;;;;;18.50;47.30;;;;;;5106420;28;19907;-68
2022/10/29 14:56:48;;;;;;;;;;;18.40;46.60;;;;;;5113803;28;19965;-69
2022/10/29 14:59:24;;;;;;;;;;;18.40;46.10;;;;;;5105137;28;19995;-69
2022/10/29 15:01:54;;;;;;;;;;;18.40;45.40;;;;;;5131361;27;19908;-68
2022/10/29 15:04:28;;;;;;;;;;;18.40;45.80;;;;;;5110695;28;20400;-68
2022/10/29 15:07:13;;;;;;;;;;;18.40;45.30;;;;;;5116095;28;19956;-68
2022/10/29 15:09:40;;;;;;;;;;;18.40;44.90;;;;;;5102505;28;19913;-68
2022/10/29 15:12:07;;;;;;;;;;;18.40;45.10;;;;;;5112809;28;20288;-68
2022/10/29 15:14:37;;;;;;;;;;;18.50;45.60;;;;;;5132985;28;19922;-69
2022/10/29 15:17:23;;;;;;;;;;;18.40;45.50;;;;;;5097014;28;19915;-68
2022/10/29 15:19:53;;;;;;;;;;;18.40;45.20;;;;;;5125544;27;19908;-69
2022/10/29 15:22:25;;;;;;;;;;;18.40;45.10;;;;;;5128637;28;20481;-69
2022/10/29 15:24:52;;;;;;;;;;;18.40;45.10;;;;;;5101136;28;19919;-69
2022/10/29 15:27:20;;;;;;;;;;;18.30;45.50;;;;;;5121736;27;19965;-69
2022/10/29 15:29:47;;;;;;;;;;;18.30;45.80;;;;;;5123628;28;19998;-69
2022/10/29 15:32:14;;;;;;;;;;;18.30;45.60;;;;;;5098213;28;19916;-69
2022/10/29 15:34:45;;;;;;;;;;;18.30;45.40;;;;;;5107886;28;19915;-68
2022/10/29 15:39:58;;;;;;;;;;;18.30;45.60;;;;;;5112194;27;19976;-68
2022/10/29 15:42:28;;;;;;;;;;;18.30;45.80;;;;;;5132915;28;19915;-68
2022/10/29 15:45:07;;;;;;;;;;;18.20;46.00;;;;;;5132730;28;20373;-68
2022/10/29 15:47:34;;;;;;;;;;;18.20;46.40;;;;;;5124001;28;19947;-69
2022/10/29 15:50:00;;;;;;;;;;;18.20;46.30;;;;;;5121645;28;19919;-69
2022/10/29 15:52:31;;;;;;;;;;;18.20;46.30;;;;;;5132405;28;19911;-68
2022/10/29 15:55:01;;;;;;;;;;;18.20;45.70;;;;;;5114317;28;19915;-68
2022/10/29 15:57:30;;;;;;;;;;;18.20;46.60;;;;;;5112117;28;20399;-68
2022/10/29 15:59:56;;;;;;;;;;;18.10;46.30;;;;;;5118600;28;20270;-68
2022/10/29 16:02:24;;;;;;;;;;;18.10;46.70;;;;;;5132568;28;19998;-68
2022/10/29 16:04:50;;;;;;;;;;;18.10;46.30;;;;;;5132217;28;19908;-68
2022/10/29 16:07:17;;;;;;;;;;;18.10;46.70;;;;;;5127591;28;19908;-69
2022/10/29 16:09:45;;;;;;;;;;;18.10;46.20;;;;;;5115909;27;19918;-69
2022/10/29 16:12:11;;;;;;;;;;;18.10;46.30;;;;;;5135182;27;19943;-68
2022/10/29 16:14:38;;;;;;;;;;;18.00;46.30;;;;;;5135893;27;19907;-68
2022/10/29 16:17:14;;;;;;;;;;;18.00;46.50;;;;;;5136048;27;19920;-68
2022/10/29 16:19:41;;;;;;;;;;;18.00;46.90;;;;;;5124425;27;19912;-68
2022/10/29 16:22:11;;;;;;;;;;;17.90;47.00;;;;;;5128889;27;19920;-68
2022/10/29 16:24:38;;;;;;;;;;;17.90;46.70;;;;;;5117656;27;19963;-68
2022/10/29 16:27:12;;;;;;;;;;;17.90;46.80;;;;;;5135588;27;20285;-67
2022/10/29 16:29:39;;;;;;;;;;;17.80;47.30;;;;;;5129263;27;19994;-68
2022/10/29 16:32:05;;;;;;;;;;;17.80;47.70;;;;;;5129421;27;19908;-68
2022/10/29 16:34:32;;;;;;;;;;;17.80;47.70;;;;;;5130546;27;20242;-68
2022/10/29 16:36:58;;;;;;;;;;;17.70;48.50;;;;;;5135799;27;19912;-69
2022/10/29 16:39:25;;;;;;;;;;;17.70;48.90;;;;;;5130935;27;19920;-69
2022/10/29 16:41:52;;;;;;;;;;;17.60;49.00;;;;;;5112823;27;19972;-69
2022/10/29 16:44:18;;;;;;;;;;;17.50;50.10;;;;;;5132273;27;19907;-69
2022/10/29 16:46:45;;;;;;;;;;;17.50;50.30;;;;;;5129415;27;19961;-69
2022/10/29 16:49:11;;;;;;;;;;;17.50;50.00;;;;;;5135397;27;19919;-69
2022/10/29 16:51:38;;;;;;;;;;;17.40;49.80;;;;;;5124262;27;19908;-69
2022/10/29 16:54:04;;;;;;;;;;;17.30;49.90;;;;;;5135225;27;19907;-69
2022/10/29 16:56:31;;;;;;;;;;;17.30;51.00;;;;;;5132066;27;19916;-69
2022/10/29 16:58:58;;;;;;;;;;;17.20;50.90;;;;;;5117959;27;20043;-69
2022/10/29 17:01:24;;;;;;;;;;;17.20;51.30;;;;;;5121978;27;20006;-69
2022/10/29 17:03:51;;;;;;;;;;;17.20;50.40;;;;;;5135053;27;20276;-69
2022/10/29 17:06:18;;;;;;;;;;;17.20;51.10;;;;;;5135221;27;19966;-69
2022/10/29 17:08:44;;;;;;;;;;;17.20;52.10;;;;;;5124516;27;19958;-69
2022/10/29 17:11:11;;;;;;;;;;;17.10;52.00;;;;;;5109068;27;19920;-69
2022/10/29 17:13:37;;;;;;;;;;;17.10;52.30;;;;;;5135015;27;19915;-69
2022/10/29 17:16:07;;;;;;;;;;;17.00;52.10;;;;;;5134835;27;19976;-69
2022/10/29 17:18:34;;;;;;;;;;;17.10;51.90;;;;;;5134149;27;19960;-69
2022/10/29 17:21:01;;;;;;;;;;;17.00;51.60;;;;;;5119135;27;19908;-69
2022/10/29 17:23:28;;;;;;;;;;;17.00;51.80;;;;;;5116448;27;20006;-68
2022/10/29 17:25:55;;;;;;;;;;;17.00;52.00;;;;;;5107732;27;20361;-69
2022/10/29 17:28:21;;;;;;;;;;;16.90;53.10;;;;;;5122583;27;19957;-69
2022/10/29 17:30:48;;;;;;;;;;;16.90;52.80;;;;;;5128835;27;19908;-69
2022/10/29 17:33:15;;;;;;;;;;;16.80;52.70;;;;;;5123996;27;20250;-69
2022/10/29 17:35:42;;;;;;;;;;;16.80;52.70;;;;;;5116089;27;20330;-68
2022/10/29 17:38:08;;;;;;;;;;;16.80;53.20;;;;;;5134379;27;19908;-69
2022/10/29 17:40:35;;;;;;;;;;;16.70;53.20;;;;;;5115382;27;20401;-69
2022/10/29 17:43:02;;;;;;;;;;;16.70;53.70;;;;;;5104268;27;19914;-68
2022/10/29 17:45:28;;;;;;;;;;;16.70;54.00;;;;;;5108405;27;19911;-69
2022/10/29 17:47:55;;;;;;;;;;;16.70;53.60;;;;;;5134347;27;19907;-68
2022/10/29 17:50:22;;;;;;;;;;;16.60;54.00;;;;;;5103784;28;19974;-68
2022/10/29 17:52:49;;;;;;;;;;;16.60;53.70;;;;;;5112230;27;19938;-67
2022/10/29 17:55:15;;;;;;;;;;;16.60;53.90;;;;;;5125819;27;19970;-68
2022/10/29 17:57:42;;;;;;;;;;;16.60;54.30;;;;;;5124588;27;19955;-68
2022/10/29 18:00:09;;;;;;;;;;;16.50;54.90;;;;;;5118360;27;19930;-67
2022/10/29 18:02:35;;;;;;;;;;;16.50;54.80;;;;;;5126159;27;20319;-68
2022/10/29 18:05:02;;;;;;;;;;;16.50;54.60;;;;;;5131043;27;20394;-68
2022/10/29 18:07:28;;;;;;;;;;;16.40;54.50;;;;;;5131389;27;19908;-67
2022/10/29 18:09:55;;;;;;;;;;;16.50;54.40;;;;;;5129153;27;19947;-67
2022/10/29 18:12:22;;;;;;;;;;;16.50;54.50;;;;;;5106970;27;19915;-68
2022/10/29 18:14:48;;;;;;;;;;;16.40;54.70;;;;;;5126747;27;19915;-68
2022/10/29 18:17:15;;;;;;;;;;;16.30;55.90;;;;;;5130582;27;19947;-68
2022/10/29 18:19:41;;;;;;;;;;;16.30;56.10;;;;;;5131180;27;19908;-68
2022/10/29 18:22:08;;;;;;;;;;;16.30;55.60;;;;;;5123914;27;20351;-67
2022/10/29 18:24:34;;;;;;;;;;;16.20;55.50;;;;;;5130694;27;19912;-68
2022/10/29 18:27:01;;;;;;;;;;;16.20;55.40;;;;;;5128562;27;19994;-68
2022/10/29 18:29:28;;;;;;;;;;;16.20;55.60;;;;;;5130903;27;19915;-68
2022/10/29 18:31:54;;;;;;;;;;;16.30;55.30;;;;;;5116939;27;19912;-68
2022/10/29 18:34:21;;;;;;;;;;;16.20;55.50;;;;;;5119651;27;20361;-69
2022/10/29 18:36:47;;;;;;;;;;;16.20;55.70;;;;;;5128828;27;20369;-69
2022/10/29 18:39:14;;;;;;;;;;;16.20;56.10;;;;;;5114997;27;19919;-69
2022/10/29 18:41:41;;;;;;;;;;;16.20;56.10;;;;;;5124659;27;20312;-69
2022/10/29 18:44:07;;;;;;;;;;;16.10;55.90;;;;;;5120388;27;19923;-69
2022/10/29 18:46:34;;;;;;;;;;;16.10;56.70;;;;;;5127879;27;19923;-69
2022/10/29 18:49:00;;;;;;;;;;;16.00;56.20;;;;;;5123637;27;20276;-70
2022/10/29 18:51:28;;;;;;;;;;;16.00;56.40;;;;;;5115745;27;19915;-69
2022/10/29 18:53:56;;;;;;;;;;;16.10;55.90;;;;;;5123627;27;19915;-69
2022/10/29 18:56:23;;;;;;;;;;;16.10;55.70;;;;;;5112863;28;20456;-69
2022/10/29 18:58:50;;;;;;;;;;;16.10;55.30;;;;;;5130043;27;19911;-69
2022/10/29 19:01:21;;;;;;;;;;;16.10;56.40;;;;;;5111090;28;19961;-69
2022/10/29 19:03:48;;;;;;;;;;;16.00;56.90;;;;;;5116730;28;19919;-69
2022/10/29 19:06:15;;;;;;;;;;;16.00;56.70;;;;;;5130125;28;19915;-69
2022/10/29 19:08:42;;;;;;;;;;;16.00;56.60;;;;;;5130736;28;20377;-69
2022/10/29 19:11:12;;;;;;;;;;;15.90;57.00;;;;;;5130677;28;19912;-69
2022/10/29 19:13:39;;;;;;;;;;;15.90;57.00;;;;;;5086093;28;19932;-68
2022/10/29 19:16:06;;;;;;;;;;;15.80;57.50;;;;;;5118223;28;19919;-69
2022/10/29 19:18:33;;;;;;;;;;;15.80;57.40;;;;;;5130291;28;20345;-69
2022/10/29 19:21:03;;;;;;;;;;;15.90;57.80;;;;;;5108129;28;19950;-68
2022/10/29 19:23:30;;;;;;;;;;;15.90;57.00;;;;;;5114418;28;20007;-69
2022/10/29 19:25:57;;;;;;;;;;;16.10;56.70;;;;;;5109080;28;19911;-69
2022/10/29 19:28:23;;;;;;;;;;;16.10;56.50;;;;;;5109305;28;19916;-69
2022/10/29 19:30:50;;;;;;;;;;;16.20;56.70;;;;;;5109611;28;19915;-68
2022/10/29 19:33:16;;;;;;;;;;;16.20;56.90;;;;;;5100957;28;19916;-68
2022/10/29 19:35:43;;;;;;;;;;;16.20;56.70;;;;;;5104801;28;19979;-69
2022/10/29 19:38:10;;;;;;;;;;;16.30;56.50;;;;;;5109231;28;19924;-68
2022/10/29 19:40:36;;;;;;;;;;;16.30;56.70;;;;;;5108635;28;20547;-68
2022/10/29 19:43:03;;;;;;;;;;;16.20;56.50;;;;;;5100613;28;19938;-68
2022/10/29 19:45:29;;;;;;;;;;;16.30;57.50;;;;;;5112272;28;19927;-69
2022/10/29 19:47:56;;;;;;;;;;;16.30;56.30;;;;;;5105617;28;20006;-68
2022/10/29 19:50:22;;;;;;;;;;;16.40;56.50;;;;;;5112949;28;20384;-68
2022/10/29 19:52:49;;;;;;;;;;;16.50;55.90;;;;;;5111123;27;19915;-68
2022/10/29 19:55:16;;;;;;;;;;;16.50;56.50;;;;;;5110935;27;20304;-69
2022/10/29 19:57:42;;;;;;;;;;;16.50;56.40;;;;;;5113039;28;20374;-69
2022/10/29 20:00:09;;;;;;;;;;;16.50;55.80;;;;;;5111465;28;19916;-68
2022/10/29 20:02:36;;;;;;;;;;;16.50;55.40;;;;;;5112436;28;20011;-69
2022/10/29 20:05:03;;;;;;;;;;;16.60;55.00;;;;;;5107372;28;19907;-70
2022/10/29 20:07:30;;;;;;;;;;;16.70;56.10;;;;;;5112766;28;20439;-69
2022/10/29 20:09:56;;;;;;;;;;;16.70;55.80;;;;;;5111910;28;19920;-69
2022/10/29 20:12:23;;;;;;;;;;;16.70;56.60;;;;;;5118801;27;20219;-69
2022/10/29 20:14:50;;;;;;;;;;;16.80;56.50;;;;;;5106186;27;19964;-68
2022/10/29 20:17:16;;;;;;;;;;;16.80;55.50;;;;;;5132358;27;19915;-69
2022/10/29 20:19:43;;;;;;;;;;;16.90;54.40;;;;;;5136477;27;20319;-68
2022/10/29 20:22:09;;;;;;;;;;;16.90;55.90;;;;;;5136097;27;19908;-67
2022/10/29 20:24:36;;;;;;;;;;;17.00;56.50;;;;;;5134205;27;19918;-68
2022/10/29 20:27:03;;;;;;;;;;;17.00;56.10;;;;;;5122103;27;19916;-67
2022/10/29 20:29:29;;;;;;;;;;;17.00;55.90;;;;;;5132097;27;19914;-67
2022/10/29 20:31:56;;;;;;;;;;;17.10;55.90;;;;;;5121634;27;19915;-67
2022/10/29 20:34:22;;;;;;;;;;;17.20;56.00;;;;;;5132121;27;19911;-67
2022/10/29 20:36:49;;;;;;;;;;;17.20;55.20;;;;;;5125254;27;19923;-66
2022/10/29 20:39:16;;;;;;;;;;;17.20;55.10;;;;;;5115032;28;20374;-67
2022/10/29 20:41:42;;;;;;;;;;;17.30;55.20;;;;;;5115485;28;19908;-67
2022/10/29 20:44:09;;;;;;;;;;;17.30;55.10;;;;;;5093812;28;19973;-67
2022/10/29 20:46:35;;;;;;;;;;;17.40;54.20;;;;;;5114390;28;20293;-66
2022/10/29 20:49:02;;;;;;;;;;;17.40;54.50;;;;;;5114277;28;19919;-66
2022/10/29 20:51:29;;;;;;;;;;;17.40;54.10;;;;;;5114637;28;20281;-66
2022/10/29 20:53:55;;;;;;;;;;;17.50;54.00;;;;;;5114039;28;19950;-66
2022/10/29 20:56:22;;;;;;;;;;;17.60;53.70;;;;;;5109378;28;19916;-66
2022/10/29 20:58:49;;;;;;;;;;;17.60;52.50;;;;;;5114661;28;19915;-67
2022/10/29 21:01:16;;;;;;;;;;;17.70;51.90;;;;;;5113582;28;20266;-67
2022/10/29 21:03:43;;;;;;;;;;;17.80;52.60;;;;;;5100686;28;20276;-66
2022/10/29 21:06:11;;;;;;;;;;;17.80;52.60;;;;;;5108300;28;19922;-66
2022/10/29 21:08:37;;;;;;;;;;;17.80;52.20;;;;;;5113865;28;19915;-67
2022/10/29 21:11:05;;;;;;;;;;;17.90;52.30;;;;;;5114712;28;19911;-66
2022/10/29 21:13:32;;;;;;;;;;;18.00;52.40;;;;;;5124143;27;19955;-66
2022/10/29 21:16:05;;;;;;;;;;;18.00;52.10;;;;;;5113810;27;19915;-66
2022/10/29 21:18:36;;;;;;;;;;;18.10;52.70;;;;;;5124389;27;19911;-65
2022/10/29 21:21:03;;;;;;;;;;;18.10;51.20;;;;;;5135035;27;20289;-67
2022/10/29 21:23:30;;;;;;;;;;;18.10;49.90;;;;;;5115792;27;19916;-67
2022/10/29 21:47:53;;;;;;;;;;;18.60;48.20;;;;;;5102337;28;19926;-67
2022/10/29 21:50:20;;;;;;;;;;;18.70;47.40;;;;;;5113477;28;19916;-67
2022/10/29 21:52:46;;;;;;;;;;;18.70;47.50;;;;;;5113222;28;19907;-67
2022/10/29 21:55:13;;;;;;;;;;;18.80;47.80;;;;;;5112422;28;19915;-68